As Victoria — A8SO7 — position and weather

sailwx.info

Track history (hours):
 
Tides and Currents Weather Stations Pressure Air Temp Water Temp Dewpoint Dewpoint Depression Visibility Wind Speed Wind Dir Waves Ship Positions

As Victoria

Last reported at 2016-Oct-05 19:32 UTC. Time now 2016-Dec-08 06:04 UTC.
Position N 31°34' E 032°10'.
Warning: this ship's position is months out of date.

Length 190 m; draft 11.5 m.

MMSI: 636091769.

Date/timePositionNaut miles runAvg speedWind from/ knotsBaromVisibWave heightAir tempDewpointWater temp
2016-Oct-05 19:32N 31°34' E 032°10'  
2016-Oct-02 18:33N 36°03' E 015°29'3511.9
2016-Oct-02 15:34N 36°13' E 014°47'1211.9
2016-Oct-02 14:33N 36°17' E 014°33'2611.8
2016-Oct-02 12:18N 36°25' E 014°01'3211.6
2016-Oct-02 09:34N 36°35' E 013°24'  
2016-Sep-28 21:23N 36°19' W 002°30'369 7.6
2016-Sep-26 20:33N 38°03' W 009°55'1212.1
2016-Sep-26 19:33N 38°14' W 009°59'4812.0
2016-Sep-26 15:33N 39°02' W 010°06'  
Track history (hours):
 
Tides and Currents Weather Stations Pressure Air Temp Water Temp Dewpoint Dewpoint Depression Visibility Wind Speed Wind Dir Waves Ship Positions

As Victoria

Last reported at 2016-Oct-05 19:32 UTC. Time now 2016-Dec-08 06:04 UTC.
Position N 31°34' E 032°10'.
Warning: this ship's position is months out of date.

Length 190 m; draft 11.5 m.

MMSI: 636091769.

Date/timePositionNaut miles runAvg speedWind from/ knotsBaromVisibWave heightAir tempDewpointWater temp
2016-Oct-05 19:32N 31°34' E 032°10'  
2016-Oct-02 18:33N 36°03' E 015°29'3511.9
2016-Oct-02 15:34N 36°13' E 014°47'1211.9
2016-Oct-02 14:33N 36°17' E 014°33'2611.8
2016-Oct-02 12:18N 36°25' E 014°01'3211.6
2016-Oct-02 09:34N 36°35' E 013°24'  
2016-Sep-28 21:23N 36°19' W 002°30'369 7.6
2016-Sep-26 20:33N 38°03' W 009°55'1212.1
2016-Sep-26 19:33N 38°14' W 009°59'4812.0
2016-Sep-26 15:33N 39°02' W 010°06'  

Dump ship's entire track history